Time;durP1;ratioP1;P1;durP2;ratioP2;P2;SDS_P1;SDS_P2;PMS_P1;PMS_P2;Temp;Humidity;BMP_temperature;BMP_pressure;BME280_temperature;BME280_humidity;BME280_pressure;Samples;Min_cycle;Max_cycle;Signal;HPM_P1;HPM_P2
2021/11/28 00:01:19;;;;;;;57.65;32.25;;;;;;;5.04;96.52;99572.91;5036782;28;20055;-81
2021/11/28 00:03:45;;;;;;;60.83;32.55;;;;;;;5.08;96.51;99577.09;5002142;28;20048;-81
2021/11/28 00:06:20;;;;;;;49.05;28.08;;;;;;;5.13;96.41;99585.53;5038273;28;20138;-82
2021/11/28 00:14:11;;;;;;;54.88;29.50;;;;;;;5.32;96.45;99586.50;5005343;28;20248;-82
2021/11/28 00:16:36;;;;;;;71.25;35.50;;;;;;;5.37;96.68;99594.13;5023813;28;20024;-81
2021/11/28 00:19:03;;;;;;;65.97;32.42;;;;;;;5.39;96.73;99595.75;5039607;28;20237;-81
2021/11/28 00:21:28;;;;;;;64.35;32.63;;;;;;;5.38;97.03;99603.59;5058189;28;20040;-81
2021/11/28 00:23:54;;;;;;;69.60;33.78;;;;;;;5.38;97.01;99606.19;5043578;28;20224;-82
2021/11/28 00:26:19;;;;;;;62.92;31.90;;;;;;;5.42;97.09;99607.78;5062179;28;20049;-82
2021/11/28 00:28:45;;;;;;;51.88;29.50;;;;;;;5.41;97.04;99605.25;5027638;28;20041;-81
2021/11/28 00:31:10;;;;;;;65.47;30.70;;;;;;;5.45;97.29;99607.66;5041675;28;20049;-81
2021/11/28 00:33:36;;;;;;;62.28;30.63;;;;;;;5.47;97.26;99618.81;5043116;28;20170;-81
2021/11/28 00:36:02;;;;;;;66.43;33.15;;;;;;;5.46;97.37;99622.34;5043914;28;20086;-82
2021/11/28 00:38:27;;;;;;;70.82;34.08;;;;;;;5.47;97.53;99616.22;5061648;28;20049;-81
2021/11/28 00:40:53;;;;;;;68.10;33.53;;;;;;;5.48;97.55;99617.91;5044258;28;20228;-81
2021/11/28 00:43:19;;;;;;;65.93;33.28;;;;;;;5.44;97.71;99624.16;5043824;28;20432;-81
2021/11/28 00:45:46;;;;;;;65.57;33.25;;;;;;;5.41;97.78;99618.22;5046294;28;20028;-82
2021/11/28 00:48:11;;;;;;;67.15;33.63;;;;;;;5.36;97.60;99628.78;5062208;28;20041;-81
2021/11/28 00:53:10;;;;;;;62.38;32.85;;;;;;;5.29;97.56;99627.31;5065069;28;20296;-81
2021/11/28 00:55:35;;;;;;;62.20;31.83;;;;;;;5.23;97.52;99630.16;5048241;28;20479;-81
2021/11/28 00:58:01;;;;;;;54.22;30.20;;;;;;;5.15;97.33;99633.06;5045727;28;20033;-81
2021/11/28 01:00:26;;;;;;;58.53;31.20;;;;;;;5.08;97.21;99632.41;5065791;28;20052;-81
2021/11/28 01:02:52;;;;;;;55.25;30.13;;;;;;;5.02;97.01;99635.25;5031504;28;20037;-81
2021/11/28 01:05:17;;;;;;;56.15;29.20;;;;;;;4.95;96.85;99649.34;5048486;28;20268;-81
2021/11/28 01:07:43;;;;;;;54.45;29.77;;;;;;;4.88;97.00;99647.88;5048212;28;20251;-81
2021/11/28 01:10:08;;;;;;;55.95;29.75;;;;;;;4.86;96.24;99660.03;5047751;28;20037;-81
2021/11/28 01:12:34;;;;;;;50.33;28.50;;;;;;;4.88;96.38;99658.25;5047765;28;20067;-81
2021/11/28 01:14:59;;;;;;;55.05;29.15;;;;;;;4.87;96.41;99665.19;5076124;28;20071;-81
2021/11/28 01:17:26;;;;;;;52.92;28.48;;;;;;;4.89;96.24;99668.56;5030926;28;20028;-82
2021/11/28 01:19:51;;;;;;;55.78;29.38;;;;;;;4.96;96.46;99671.78;5030962;28;20037;-81
2021/11/28 01:22:17;;;;;;;60.70;32.15;;;;;;;5.02;96.55;99674.19;5014950;28;20059;-81
2021/11/28 01:24:43;;;;;;;52.25;28.05;;;;;;;4.95;96.05;99675.31;5064859;28;20092;-81
2021/11/28 01:27:10;;;;;;;49.50;26.40;;;;;;;5.06;96.11;99672.28;5030709;28;20036;-81
2021/11/28 01:29:35;;;;;;;54.45;30.40;;;;;;;5.09;96.05;99682.56;5064943;28;20060;-81
2021/11/28 01:32:02;;;;;;;53.63;28.52;;;;;;;5.03;95.73;99682.81;5031312;28;20025;-81
2021/11/28 01:34:28;;;;;;;58.22;30.30;;;;;;;5.00;95.63;99683.75;5046932;28;20033;-81
2021/11/28 01:36:53;;;;;;;50.47;28.67;;;;;;;4.93;95.70;99687.47;5030791;28;20297;-81
2021/11/28 01:39:18;;;;;;;50.03;29.10;;;;;;;4.84;95.63;99688.66;5013950;28;20033;-81
2021/11/28 01:41:44;;;;;;;52.78;29.25;;;;;;;4.83;95.38;99693.91;5047444;28;20045;-81
2021/11/28 01:44:09;;;;;;;48.08;28.08;;;;;;;4.86;95.65;99692.03;5047221;28;20047;-82
2021/11/28 01:46:35;;;;;;;55.58;30.65;;;;;;;4.90;95.81;99696.22;5047569;28;20059;-81
2021/11/28 01:49:00;;;;;;;47.30;25.95;;;;;;;4.93;96.06;99695.25;5030359;28;20086;-81
2021/11/28 01:51:26;;;;;;;55.38;29.25;;;;;;;4.96;96.12;99698.56;5046625;28;20044;-81
2021/11/28 01:53:52;;;;;;;52.55;29.08;;;;;;;4.91;96.12;99697.03;5079409;28;20036;-81
2021/11/28 01:56:18;;;;;;;48.85;26.65;;;;;;;4.83;95.95;99702.50;5047527;28;20029;-81
2021/11/28 01:58:43;;;;;;;55.85;29.95;;;;;;;4.76;95.60;99701.88;5030831;28;20072;-81
2021/11/28 02:04:43;;;;;;;47.10;27.38;;;;;;;4.72;95.27;99710.66;5053152;28;20060;-81
2021/11/28 02:07:09;;;;;;;52.88;28.40;;;;;;;4.76;95.38;99706.22;5048606;28;20116;-81
2021/11/28 02:09:37;;;;;;;51.47;29.48;;;;;;;4.81;95.51;99712.94;5045980;28;20187;-81
2021/11/28 02:12:02;;;;;;;53.45;29.98;;;;;;;4.80;95.70;99711.25;5030965;28;20025;-81
2021/11/28 02:14:28;;;;;;;53.92;30.33;;;;;;;4.79;95.57;99711.31;5029664;28;20084;-81
2021/11/28 02:16:53;;;;;;;52.53;30.20;;;;;;;4.77;95.53;99713.13;5079310;28;20032;-81
2021/11/28 02:19:18;;;;;;;48.33;28.13;;;;;;;4.73;95.32;99714.09;5046011;28;20040;-81
2021/11/28 02:21:44;;;;;;;48.70;28.77;;;;;;;4.77;95.42;99723.50;5046594;28;20103;-81
2021/11/28 02:24:10;;;;;;;50.05;28.23;;;;;;;4.77;95.52;99726.09;5064978;28;20104;-81
2021/11/28 02:26:35;;;;;;;49.05;27.40;;;;;;;4.73;95.29;99725.34;5046722;28;20028;-81
2021/11/28 02:29:01;;;;;;;52.05;29.10;;;;;;;4.72;95.28;99721.03;5046785;28;20047;-81
2021/11/28 02:31:27;;;;;;;47.25;27.67;;;;;;;4.69;95.14;99731.50;5063661;28;20039;-81
2021/11/28 02:33:52;;;;;;;46.85;26.70;;;;;;;4.68;95.08;99732.44;5068716;28;20083;-81
2021/11/28 02:36:17;;;;;;;43.33;26.58;;;;;;;4.68;95.04;99737.63;5041280;28;20048;-81
2021/11/28 02:38:43;;;;;;;44.88;26.23;;;;;;;4.67;95.07;99741.09;5062771;28;20427;-81
2021/11/28 02:41:09;;;;;;;42.92;26.15;;;;;;;4.69;94.95;99746.25;5063643;28;20037;-81
2021/11/28 02:43:34;;;;;;;42.97;25.40;;;;;;;4.70;94.93;99740.16;5046303;28;20333;-81
2021/11/28 02:46:02;;;;;;;45.70;25.98;;;;;;;4.73;94.88;99745.22;5045615;28;20040;-81
2021/11/28 02:48:27;;;;;;;39.85;24.02;;;;;;;4.75;95.05;99746.03;5046301;28;20032;-81
2021/11/28 02:50:53;;;;;;;41.47;24.35;;;;;;;4.74;95.12;99745.19;5063577;28;20048;-81
2021/11/28 02:53:18;;;;;;;41.20;24.45;;;;;;;4.74;95.09;99745.19;5045696;28;20067;-81
2021/11/28 02:55:46;;;;;;;39.33;23.85;;;;;;;4.74;94.82;99752.97;5046023;28;20241;-81
2021/11/28 02:58:13;;;;;;;35.97;21.97;;;;;;;4.72;94.80;99753.94;5029873;28;20045;-81
2021/11/28 03:00:40;;;;;;;38.30;23.42;;;;;;;4.71;94.53;99752.22;5062840;28;20037;-81
2021/11/28 03:03:06;;;;;;;41.17;23.70;;;;;;;4.70;94.65;99750.53;5045334;28;20049;-81
2021/11/28 03:05:31;;;;;;;35.40;21.25;;;;;;;4.79;94.96;99764.03;5028703;28;20035;-81
2021/11/28 03:07:56;;;;;;;40.55;23.58;;;;;;;4.86;94.97;99756.03;5045508;28;20047;-81
2021/11/28 03:10:39;;;;;;;40.17;22.98;;;;;;;4.87;95.36;99760.34;5028571;28;20060;-82
2021/11/28 03:13:09;;;;;;;37.92;22.98;;;;;;;4.80;94.98;99763.16;5030061;28;20100;-81
2021/11/28 03:15:35;;;;;;;35.47;22.40;;;;;;;4.74;94.68;99754.72;5062895;28;20044;-81
2021/11/28 03:18:02;;;;;;;36.08;21.63;;;;;;;4.69;94.31;99751.41;5062151;28;20274;-81
2021/11/28 03:20:28;;;;;;;35.28;21.80;;;;;;;4.75;94.46;99741.69;5028779;28;20045;-81
2021/11/28 03:22:53;;;;;;;39.20;22.08;;;;;;;4.76;94.75;99745.97;5028916;28;20128;-81
2021/11/28 03:25:20;;;;;;;31.65;20.27;;;;;;;4.81;94.95;99745.81;5062679;28;20045;-81
2021/11/28 03:27:46;;;;;;;32.95;19.92;;;;;;;4.92;95.00;99743.69;5044819;28;20052;-81
2021/11/28 03:30:12;;;;;;;37.10;21.85;;;;;;;5.05;95.17;99738.09;5061920;28;20040;-81
2021/11/28 03:32:37;;;;;;;41.08;21.27;;;;;;;5.07;95.51;99744.91;5028446;28;20024;-81
2021/11/28 03:35:03;;;;;;;32.67;20.17;;;;;;;4.97;95.46;99740.97;5063288;28;20033;-81
2021/11/28 03:37:30;;;;;;;29.80;18.35;;;;;;;4.88;95.08;99755.09;5044583;28;20044;-81
2021/11/28 03:39:55;;;;;;;36.47;20.15;;;;;;;4.83;94.57;99759.59;5044359;28;20032;-81
2021/11/28 03:42:21;;;;;;;34.97;20.23;;;;;;;4.82;94.54;99757.91;5044474;28;20039;-81
2021/11/28 03:44:46;;;;;;;32.78;19.05;;;;;;;4.80;94.57;99768.34;5044634;28;20218;-82
2021/11/28 03:47:11;;;;;;;23.55;16.38;;;;;;;4.74;94.20;99763.34;5044219;28;20067;-82
2021/11/28 03:49:37;;;;;;;22.80;15.45;;;;;;;4.65;93.59;99761.06;5026511;28;20032;-81
2021/11/28 03:52:03;;;;;;;28.48;17.13;;;;;;;4.62;93.11;99763.78;5008872;28;20363;-81
2021/11/28 03:54:29;;;;;;;24.95;16.67;;;;;;;4.60;93.39;99762.94;5025449;28;20059;-81
2021/11/28 03:56:54;;;;;;;24.58;16.35;;;;;;;4.57;93.26;99758.72;5059219;28;20303;-81
2021/11/28 03:59:19;;;;;;;25.65;17.23;;;;;;;4.53;93.16;99757.13;5024990;28;20041;-81
2021/11/28 04:01:46;;;;;;;26.13;16.38;;;;;;;4.52;93.03;99762.38;5025113;28;20063;-81
2021/11/28 04:04:11;;;;;;;24.13;15.13;;;;;;;4.44;92.75;99762.63;5074422;28;20106;-81
2021/11/28 04:06:37;;;;;;;22.30;15.38;;;;;;;4.40;92.39;99763.59;5059005;28;20356;-81
2021/11/28 04:09:02;;;;;;;20.48;14.18;;;;;;;4.36;92.19;99764.59;5024932;28;20112;-81
2021/11/28 04:11:28;;;;;;;23.25;14.38;;;;;;;4.32;91.97;99773.38;5041199;28;20213;-81
2021/11/28 04:13:53;;;;;;;20.77;14.23;;;;;;;4.25;91.69;99771.88;5041413;28;20348;-81
2021/11/28 04:16:19;;;;;;;23.50;15.23;;;;;;;4.18;91.39;99760.84;5040934;28;20100;-81
2021/11/28 04:18:44;;;;;;;19.65;13.43;;;;;;;4.10;91.07;99758.50;5059367;28;20028;-81
2021/11/28 04:21:09;;;;;;;19.60;14.10;;;;;;;4.05;91.17;99768.16;5024688;28;20086;-81
2021/11/28 04:23:35;;;;;;;20.73;13.77;;;;;;;4.03;91.21;99764.78;5040568;28;20094;-81
2021/11/28 04:26:00;;;;;;;24.02;15.10;;;;;;;3.99;91.43;99758.84;5041274;28;20261;-81
2021/11/28 04:28:26;;;;;;;22.42;15.25;;;;;;;3.98;91.39;99774.44;5041344;28;20096;-81
2021/11/28 04:30:51;;;;;;;24.27;15.48;;;;;;;3.97;91.40;99772.75;5063587;28;20082;-81
2021/11/28 04:33:17;;;;;;;20.48;15.10;;;;;;;3.96;91.61;99769.28;5059238;28;20234;-81
2021/11/28 04:35:43;;;;;;;20.40;14.77;;;;;;;3.95;91.71;99765.00;5040889;28;20078;-81
2021/11/28 04:38:09;;;;;;;22.63;14.75;;;;;;;3.91;91.43;99760.84;5041176;28;20045;-81
2021/11/28 04:40:34;;;;;;;24.33;14.98;;;;;;;3.89;91.14;99764.34;5058435;28;20039;-81
2021/11/28 04:43:00;;;;;;;21.90;14.38;;;;;;;3.83;91.17;99761.03;5041500;28;20043;-81
2021/11/28 04:45:25;;;;;;;22.58;15.15;;;;;;;3.79;90.93;99768.97;5058724;28;20111;-81
2021/11/28 04:47:50;;;;;;;22.25;15.40;;;;;;;3.74;90.93;99763.91;5041281;28;20344;-81
2021/11/28 04:50:16;;;;;;;21.77;15.52;;;;;;;3.68;90.53;99771.03;5058879;28;20232;-81
2021/11/28 04:52:42;;;;;;;21.55;14.43;;;;;;;3.62;90.50;99777.22;5040776;28;20091;-81
2021/11/28 04:55:08;;;;;;;19.63;13.48;;;;;;;3.55;90.29;99776.56;5058061;28;20029;-81
2021/11/28 04:57:33;;;;;;;22.55;14.05;;;;;;;3.51;90.40;99769.78;5045574;28;20100;-81
2021/11/28 04:59:59;;;;;;;18.63;13.15;;;;;;;3.49;90.65;99773.28;5041056;28;20351;-81
2021/11/28 05:02:24;;;;;;;20.08;13.90;;;;;;;3.44;90.63;99776.84;5040787;28;20049;-81
2021/11/28 05:04:50;;;;;;;20.75;14.43;;;;;;;3.39;90.63;99776.13;5041371;28;20041;-81
2021/11/28 05:07:15;;;;;;;21.85;14.85;;;;;;;3.36;90.33;99783.13;5024603;28;20037;-81
2021/11/28 05:09:41;;;;;;;22.63;14.50;;;;;;;3.33;90.67;99784.09;5040552;28;20039;-81
2021/11/28 05:12:06;;;;;;;22.33;14.20;;;;;;;3.31;90.65;99790.19;5058412;28;20306;-81
2021/11/28 05:14:32;;;;;;;19.10;13.82;;;;;;;3.28;90.64;99798.03;5058332;28;20044;-81
2021/11/28 05:16:57;;;;;;;23.00;13.57;;;;;;;3.24;90.54;99799.88;5048662;28;20051;-81
2021/11/28 05:19:23;;;;;;;23.13;14.70;;;;;;;3.21;90.65;99802.53;5024056;28;20028;-81
2021/11/28 05:21:48;;;;;;;22.33;14.35;;;;;;;3.18;90.47;99803.44;5040964;28;20559;-81
2021/11/28 05:24:14;;;;;;;21.52;13.88;;;;;;;3.14;90.48;99806.16;5058828;28;20041;-81
2021/11/28 05:26:39;;;;;;;21.25;14.23;;;;;;;3.12;90.60;99807.94;5040530;28;20063;-81
2021/11/28 05:29:05;;;;;;;20.75;13.70;;;;;;;3.08;90.40;99807.19;5041020;28;20032;-81
2021/11/28 05:31:30;;;;;;;22.42;14.07;;;;;;;3.07;90.67;99813.22;5040625;28;20244;-81
2021/11/28 05:33:55;;;;;;;21.25;14.45;;;;;;;3.04;90.77;99819.34;5041395;28;20032;-81
2021/11/28 05:36:21;;;;;;;23.63;15.55;;;;;;;3.02;90.60;99817.66;5044187;28;20201;-81
2021/11/28 05:38:47;;;;;;;23.20;14.50;;;;;;;2.97;90.40;99819.56;5028425;28;20033;-81
2021/11/28 05:41:12;;;;;;;21.98;14.25;;;;;;;2.97;90.55;99819.56;5062189;28;20043;-81
2021/11/28 05:43:40;;;;;;;22.23;14.30;;;;;;;2.93;90.54;99815.31;5044073;28;20049;-81
2021/11/28 05:46:06;;;;;;;27.25;16.38;;;;;;;2.91;90.75;99820.56;5044968;28;20096;-81
2021/11/28 05:48:32;;;;;;;24.25;14.82;;;;;;;2.90;91.04;99815.41;5023847;28;20041;-81
2021/11/28 05:50:57;;;;;;;19.67;13.45;;;;;;;2.88;91.04;99815.47;5033150;28;20036;-81
2021/11/28 05:53:23;;;;;;;19.45;13.80;;;;;;;2.85;90.83;99812.94;5044055;28;20055;-81
2021/11/28 05:55:49;;;;;;;24.60;14.48;;;;;;;2.81;90.41;99814.75;5062547;28;20063;-81
2021/11/28 05:58:15;;;;;;;20.70;13.75;;;;;;;2.78;90.60;99804.47;5041731;28;20033;-82
2021/11/28 06:00:40;;;;;;;20.60;13.80;;;;;;;2.78;90.88;99811.41;5007898;28;20400;-81
2021/11/28 06:03:05;;;;;;;19.95;12.90;;;;;;;2.76;90.81;99826.94;5048548;28;20368;-82
2021/11/28 06:05:31;;;;;;;16.80;12.23;;;;;;;2.73;90.75;99824.44;5028188;28;20250;-82
2021/11/28 06:07:56;;;;;;;22.13;14.23;;;;;;;2.71;90.65;99834.00;5044752;28;20049;-82
2021/11/28 06:10:22;;;;;;;18.80;12.38;;;;;;;2.68;91.01;99828.88;5044247;28;20273;-82
2021/11/28 06:12:47;;;;;;;16.42;12.05;;;;;;;2.66;90.77;99836.66;5055820;28;20103;-82
2021/11/28 06:15:13;;;;;;;18.88;11.77;;;;;;;2.66;91.01;99833.25;5063213;28;20321;-82
2021/11/28 06:17:38;;;;;;;18.92;12.82;;;;;;;2.64;90.85;99840.19;5061645;28;20198;-82
2021/11/28 06:20:05;;;;;;;21.80;12.80;;;;;;;2.63;90.82;99838.47;5044436;28;20120;-83
2021/11/28 06:22:30;;;;;;;17.00;11.68;;;;;;;2.60;90.72;99838.53;5044815;28;20021;-84
2021/11/28 06:24:56;;;;;;;22.73;12.95;;;;;;;2.59;90.93;99835.13;5043156;28;20383;-82
2021/11/28 06:27:21;;;;;;;18.90;13.02;;;;;;;2.59;91.10;99842.03;5060614;28;20056;-82
2021/11/28 06:29:47;;;;;;;17.73;12.90;;;;;;;2.57;91.01;99843.81;5036356;28;20309;-82
2021/11/28 06:32:13;;;;;;;17.17;12.00;;;;;;;2.55;90.81;99851.59;5024151;28;20045;-82
2021/11/28 06:34:39;;;;;;;19.73;13.45;;;;;;;2.53;90.81;99849.91;5009488;28;20064;-81
2021/11/28 06:37:04;;;;;;;23.67;13.23;;;;;;;2.49;90.82;99855.19;5018613;28;20033;-81
2021/11/28 06:39:29;;;;;;;17.65;11.85;;;;;;;2.47;90.86;99861.25;5038806;28;20083;-81
2021/11/28 06:41:55;;;;;;;17.15;11.75;;;;;;;2.45;90.76;99857.84;5042881;28;20040;-81
2021/11/28 06:44:20;;;;;;;18.23;12.88;;;;;;;2.42;90.90;99856.19;5043260;28;20048;-81
2021/11/28 06:46:46;;;;;;;17.73;12.70;;;;;;;2.42;90.89;99860.50;5042850;28;20048;-81
2021/11/28 06:49:11;;;;;;;25.08;14.32;;;;;;;2.41;91.12;99871.72;5026089;28;20056;-81
2021/11/28 06:51:37;;;;;;;22.30;14.30;;;;;;;2.42;91.45;99874.28;5059365;28;20223;-82
2021/11/28 06:54:02;;;;;;;24.80;14.50;;;;;;;2.44;91.56;99874.25;5043413;28;20051;-82
2021/11/28 06:56:27;;;;;;;21.10;13.40;;;;;;;2.44;91.42;99882.84;5043369;28;20040;-82
2021/11/28 06:58:53;;;;;;;18.52;12.82;;;;;;;2.42;90.96;99887.22;5061498;28;20344;-81
2021/11/28 07:01:18;;;;;;;21.00;13.27;;;;;;;2.40;91.30;99888.97;5026042;28;20049;-81
2021/11/28 07:03:44;;;;;;;23.73;13.95;;;;;;;2.40;91.27;99893.28;5060089;28;20064;-81
2021/11/28 07:06:09;;;;;;;24.27;14.82;;;;;;;2.38;91.29;99895.06;5060531;28;20041;-81
2021/11/28 07:08:35;;;;;;;25.05;14.98;;;;;;;2.38;91.44;99895.91;5026578;28;20037;-82
2021/11/28 07:11:00;;;;;;;20.35;13.73;;;;;;;2.38;91.51;99898.47;5060948;28;20048;-82
2021/11/28 07:13:26;;;;;;;23.42;14.80;;;;;;;2.38;91.53;99895.06;5060819;28;20047;-82
2021/11/28 07:15:51;;;;;;;23.08;13.77;;;;;;;2.38;91.77;99901.06;5060751;28;20236;-81
2021/11/28 07:18:17;;;;;;;23.10;14.40;;;;;;;2.38;91.85;99898.47;5031861;28;20064;-82
2021/11/28 07:20:42;;;;;;;23.63;14.50;;;;;;;2.40;91.92;99912.25;5041069;28;20049;-82
2021/11/28 07:23:08;;;;;;;25.52;15.55;;;;;;;2.43;92.07;99909.56;5049939;28;20047;-82
2021/11/28 07:25:33;;;;;;;23.38;13.82;;;;;;;2.43;92.24;99912.16;5041011;28;20116;-82
2021/11/28 07:28:00;;;;;;;25.75;15.10;;;;;;;2.43;91.99;99919.91;5023991;28;20037;-82
2021/11/28 07:30:26;;;;;;;23.25;14.25;;;;;;;2.44;92.09;99923.38;5024964;28;20044;-82
2021/11/28 07:32:51;;;;;;;25.13;15.05;;;;;;;2.46;92.41;99935.34;5023296;28;20049;-81
2021/11/28 07:35:17;;;;;;;25.60;14.82;;;;;;;2.48;92.45;99932.75;5057010;28;20256;-82
2021/11/28 07:37:43;;;;;;;23.58;15.15;;;;;;;2.49;92.30;99931.84;5058823;28;20029;-82
2021/11/28 07:40:09;;;;;;;28.75;15.60;;;;;;;2.49;92.40;99926.66;5034463;28;20474;-81
2021/11/28 07:42:34;;;;;;;25.35;15.63;;;;;;;2.49;92.42;99932.72;5043731;28;20055;-82
2021/11/28 07:45:00;;;;;;;26.27;15.18;;;;;;;2.52;92.48;99930.94;5058197;28;20052;-81
2021/11/28 07:47:25;;;;;;;27.02;15.20;;;;;;;2.53;92.39;99933.50;5038738;28;20061;-82
2021/11/28 07:49:50;;;;;;;23.15;15.02;;;;;;;2.54;92.53;99944.69;5021472;28;20025;-82
2021/11/28 07:52:16;;;;;;;27.80;15.98;;;;;;;2.55;92.62;99947.22;5040096;28;20040;-81
2021/11/28 07:54:41;;;;;;;29.58;17.55;;;;;;;2.56;92.32;99955.81;5040206;28;20047;-82
2021/11/28 07:57:07;;;;;;;25.63;15.35;;;;;;;2.57;92.57;99970.47;5039100;28;20025;-82
2021/11/28 07:59:37;;;;;;;27.25;16.02;;;;;;;2.57;92.55;99967.88;5039427;28;20059;-82
2021/11/28 08:02:02;;;;;;;26.95;15.88;;;;;;;2.58;92.55;99970.41;5046333;28;20364;-82
2021/11/28 08:04:28;;;;;;;24.83;15.85;;;;;;;2.58;92.45;99969.56;5038791;28;20048;-82
2021/11/28 08:06:53;;;;;;;24.52;14.00;;;;;;;2.58;92.44;99967.81;5050980;28;20037;-81
2021/11/28 08:09:18;;;;;;;26.83;16.00;;;;;;;2.60;92.58;99965.22;5056848;28;20056;-81
2021/11/28 08:11:44;;;;;;;27.92;16.13;;;;;;;2.64;92.87;99972.03;5039633;28;20029;-82
2021/11/28 08:14:10;;;;;;;26.50;15.25;;;;;;;2.71;92.91;99971.03;5039213;28;20033;-82
2021/11/28 08:16:35;;;;;;;16.88;11.25;;;;;;;2.82;93.14;99974.22;5039781;28;20371;-82
2021/11/28 08:19:00;;;;;;;22.08;12.93;;;;;;;2.97;93.08;99983.34;5039317;28;20060;-81
2021/11/28 08:21:27;;;;;;;26.52;14.32;;;;;;;3.04;93.41;99987.50;5039248;28;20049;-81
2021/11/28 08:23:53;;;;;;;26.00;13.63;;;;;;;3.08;93.71;99991.69;5056866;28;20041;-81
2021/11/28 08:26:19;;;;;;;24.08;13.65;;;;;;;3.14;93.70;99995.03;5048100;28;20033;-81
2021/11/28 08:28:45;;;;;;;27.23;13.43;;;;;;;3.19;93.88;100000.97;5056716;28;20252;-81
2021/11/28 08:31:11;;;;;;;23.30;12.57;;;;;;;3.23;94.06;99998.25;5039504;28;20089;-82
2021/11/28 08:33:36;;;;;;;16.70;10.63;;;;;;;3.32;94.30;100001.50;5038846;28;20302;-82
2021/11/28 08:36:02;;;;;;;17.85;9.30;;;;;;;3.38;94.23;100009.97;5022965;28;20060;-82
2021/11/28 08:38:27;;;;;;;17.55;9.93;;;;;;;3.38;94.17;100011.72;5022831;28;20053;-82
2021/11/28 08:40:53;;;;;;;14.02;9.05;;;;;;;3.39;94.52;100011.69;5001251;28;20029;-82
2021/11/28 08:43:18;;;;;;;14.88;7.47;;;;;;;3.42;94.76;100015.91;5012270;28;20332;-81
2021/11/28 08:45:44;;;;;;;9.52;6.05;;;;;;;3.42;94.87;100018.50;5056825;28;20094;-82
2021/11/28 08:48:09;;;;;;;13.30;6.15;;;;;;;3.45;94.81;100026.19;5057821;28;20040;-82
2021/11/28 08:50:35;;;;;;;9.55;5.50;;;;;;;3.53;94.98;100024.28;5063349;28;20032;-82
2021/11/28 08:53:00;;;;;;;6.95;4.80;;;;;;;3.72;95.10;100023.81;5022862;28;20056;-82
2021/11/28 08:55:25;;;;;;;4.38;3.42;;;;;;;3.80;95.11;100020.16;5039769;28;20037;-82
2021/11/28 08:57:51;;;;;;;6.78;2.90;;;;;;;3.93;95.06;100019.81;5007202;28;20104;-82
2021/11/28 09:00:17;;;;;;;3.05;2.40;;;;;;;3.98;95.08;100025.72;5057285;28;20086;-82
2021/11/28 09:02:42;;;;;;;2.67;1.85;;;;;;;4.03;95.17;100034.22;5039758;28;20232;-82
2021/11/28 09:05:08;;;;;;;4.05;2.28;;;;;;;4.07;95.22;100035.84;5039407;28;20032;-82
2021/11/28 09:07:33;;;;;;;3.80;1.45;;;;;;;4.12;95.67;100033.97;5007007;28;20479;-82
2021/11/28 09:09:59;;;;;;;2.15;1.77;;;;;;;4.03;95.28;100039.41;5040966;28;20370;-81
2021/11/28 09:12:25;;;;;;;2.45;1.63;;;;;;;3.99;95.32;100043.00;5023619;28;20029;-82
2021/11/28 09:14:52;;;;;;;3.45;1.05;;;;;;;4.08;95.29;100047.09;5025468;28;20053;-82
2021/11/28 09:17:17;;;;;;;1.13;1.02;;;;;;;4.20;95.46;100042.41;5060869;28;20231;-82
2021/11/28 09:22:10;;;;;;;1.35;1.23;;;;;;;4.42;95.62;100059.94;5060060;28;20138;-82
2021/11/28 09:24:36;;;;;;;2.58;1.27;;;;;;;4.49;95.58;100063.22;5047669;28;20060;-82
2021/11/28 09:27:06;;;;;;;1.23;0.90;;;;;;;4.58;95.69;100062.97;5026800;28;20033;-81
2021/11/28 09:29:39;;;;;;;1.95;1.10;;;;;;;4.57;95.77;100059.53;5042457;28;20052;-81
2021/11/28 09:32:05;;;;;;;1.75;1.08;;;;;;;4.61;95.60;100065.50;5043035;28;20135;-82
2021/11/28 09:34:30;;;;;;;3.25;0.70;;;;;;;4.51;95.32;100064.03;5047419;28;20040;-82
2021/11/28 09:36:56;;;;;;;0.63;0.57;;;;;;;4.52;95.29;100076.97;5042799;28;20037;-82
2021/11/28 09:39:21;;;;;;;0.40;0.40;;;;;;;4.48;95.25;100082.28;5032272;28;20033;-81
2021/11/28 09:41:47;;;;;;;0.30;0.30;;;;;;;4.43;95.23;100088.44;5059382;28;20048;-82
2021/11/28 09:44:12;;;;;;;0.63;0.30;;;;;;;4.47;95.16;100086.59;5025442;28;20060;-82
2021/11/28 09:46:38;;;;;;;1.85;0.30;;;;;;;4.49;94.78;100091.75;5025720;28;20372;-81
2021/11/28 09:49:04;;;;;;;1.05;0.28;;;;;;;4.46;94.14;100091.84;5026393;28;20178;-82
2021/11/28 09:51:30;;;;;;;0.40;0.40;;;;;;;4.36;93.62;100089.50;5040422;28;20047;-81
2021/11/28 09:53:56;;;;;;;0.20;0.20;;;;;;;4.21;92.61;100088.16;5023311;28;20065;-82
2021/11/28 09:56:23;;;;;;;2.33;0.40;;;;;;;4.23;93.08;100088.13;5059448;28;20228;-82
2021/11/28 09:58:48;;;;;;;1.23;0.47;;;;;;;4.37;93.67;100075.66;5040795;28;20040;-82
2021/11/28 10:01:14;;;;;;;0.30;0.20;;;;;;;4.45;94.04;100082.38;5038459;28;20329;-82
2021/11/28 10:03:39;;;;;;;0.85;0.30;;;;;;;4.43;94.05;100078.06;5059838;28;20043;-82
2021/11/28 10:06:04;;;;;;;0.47;0.20;;;;;;;4.47;94.34;100076.22;5023731;28;20037;-82
2021/11/28 10:08:30;;;;;;;0.30;0.30;;;;;;;4.66;94.73;100063.63;5021828;28;20038;-82
2021/11/28 10:11:13;;;;;;;0.35;0.28;;;;;;;4.86;95.12;100064.75;5009436;28;20029;-82
2021/11/28 10:13:39;;;;;;;1.23;0.50;;;;;;;4.94;94.98;100055.84;5046152;28;20036;-82
2021/11/28 10:16:04;;;;;;;0.65;0.63;;;;;;;4.90;94.69;100056.84;5022629;28;20229;-82
2021/11/28 10:18:31;;;;;;;0.70;0.70;;;;;;;4.96;94.75;100059.25;5026511;28;20037;-82
2021/11/28 10:20:56;;;;;;;0.73;0.60;;;;;;;5.06;94.86;100062.44;5035687;28;20025;-82
2021/11/28 10:23:22;;;;;;;0.50;0.50;;;;;;;5.15;95.26;100056.97;5019950;28;20045;-81
2021/11/28 10:25:47;;;;;;;1.00;0.60;;;;;;;5.19;95.52;100048.19;5057651;28;20320;-81
2021/11/28 10:28:14;;;;;;;0.47;0.32;;;;;;;5.23;95.22;100042.91;5040456;28;20100;-82
2021/11/28 10:30:41;;;;;;;1.15;0.40;;;;;;;5.26;95.82;100046.25;5041832;28;20047;-82
2021/11/28 10:33:13;;;;;;;0.95;0.30;;;;;;;5.26;95.85;100061.00;5041926;28;20029;-81
2021/11/28 10:36:00;;;;;;;0.20;0.20;;;;;;;5.29;95.98;100058.28;5041505;28;20041;-81
2021/11/28 10:38:35;;;;;;;0.20;0.20;;;;;;;5.26;95.86;100055.81;5057382;28;20068;-82
2021/11/28 10:41:01;;;;;;;0.73;0.55;;;;;;;5.20;95.58;100059.41;5024517;28;20052;-81
2021/11/28 10:43:26;;;;;;;0.30;0.30;;;;;;;5.21;95.45;100060.28;5041499;28;20108;-82
2021/11/28 10:45:52;;;;;;;0.47;0.40;;;;;;;5.22;95.63;100061.97;5018842;28;20048;-82
2021/11/28 10:48:25;;;;;;;1.10;0.60;;;;;;;5.21;95.87;100060.28;5041819;28;20033;-82
2021/11/28 10:50:51;;;;;;;0.70;0.70;;;;;;;5.13;95.83;100063.97;5009643;28;20053;-81
2021/11/28 10:53:20;;;;;;;0.80;0.80;;;;;;;5.02;95.47;100059.97;5041113;28;20056;-81
2021/11/28 10:55:53;;;;;;;1.25;1.08;;;;;;;4.90;94.60;100074.19;5058250;28;20048;-82
2021/11/28 10:58:25;;;;;;;1.00;0.90;;;;;;;4.78;94.12;100081.44;5036150;28;20029;-83
2021/11/28 11:00:50;;;;;;;1.58;1.00;;;;;;;4.70;93.79;100083.38;5017886;28;20029;-83
2021/11/28 11:03:22;;;;;;;1.33;1.10;;;;;;;4.71;93.97;100092.88;5058777;28;20037;-83
2021/11/28 11:05:51;;;;;;;2.72;0.88;;;;;;;4.74;94.33;100081.56;5038428;28;20017;-83
2021/11/28 11:08:18;;;;;;;1.80;0.60;;;;;;;4.68;94.14;100092.13;5004021;28;20250;-83
2021/11/28 11:10:45;;;;;;;1.40;0.82;;;;;;;4.69;94.14;100094.63;5013666;28;20300;-83
2021/11/28 11:13:15;;;;;;;0.90;0.90;;;;;;;4.64;93.83;100101.72;5019078;28;20328;-83
2021/11/28 11:15:46;;;;;;;0.88;0.70;;;;;;;4.68;94.03;100105.06;5040851;28;20051;-83
2021/11/28 11:18:14;;;;;;;1.85;0.75;;;;;;;4.68;94.33;100103.31;5058993;28;20274;-83
2021/11/28 11:20:42;;;;;;;2.80;0.57;;;;;;;4.68;94.48;100098.13;5039859;28;20036;-83
2021/11/28 11:23:36;;;;;;;0.50;0.50;;;;;;;4.71;94.81;100092.88;5058162;28;20120;-83
2021/11/28 11:26:22;;;;;;;0.50;0.50;;;;;;;4.68;94.98;100077.38;5036551;28;20092;-83
2021/11/28 11:29:14;;;;;;;2.35;0.50;;;;;;;4.68;95.21;100068.75;5024639;28;20241;-83
2021/11/28 11:31:52;;;;;;;1.60;0.70;;;;;;;4.64;94.97;100083.56;5040366;28;20028;-83
2021/11/28 11:34:21;;;;;;;0.40;0.40;;;;;;;4.58;94.67;100081.13;5041378;28;20068;-83
2021/11/28 11:36:55;;;;;;;2.20;0.70;;;;;;;4.54;94.37;100075.16;5058779;28;20025;-83